createdAt,value
2022-11-29T00:04:28.148Z,4.93
2022-11-29T00:09:19.815Z,6.47
2022-11-29T00:14:15.174Z,4.60
2022-11-29T00:19:08.450Z,5.30
2022-11-29T00:24:00.153Z,5.17
2022-11-29T00:28:52.895Z,4.53
2022-11-29T00:33:44.952Z,3.50
2022-11-29T00:38:37.103Z,4.57
2022-11-29T00:43:28.787Z,4.00
2022-11-29T00:48:20.518Z,7.33
2022-11-29T00:53:12.188Z,4.47
2022-11-29T00:58:04.000Z,6.13
2022-11-29T01:02:55.815Z,4.97
2022-11-29T01:07:47.554Z,6.83
2022-11-29T01:12:40.320Z,7.10
2022-11-29T01:17:32.087Z,5.53
2022-11-29T01:22:23.788Z,4.00
2022-11-29T02:31:37.296Z,5.70
2022-11-29T02:37:11.289Z,5.57
2022-11-29T02:42:56.193Z,8.50
2022-11-29T02:48:15.563Z,5.80
2022-11-29T02:53:49.860Z,5.30
2022-11-29T02:59:06.710Z,6.33
2022-11-29T03:04:15.206Z,4.83
2022-11-29T03:09:32.407Z,7.20
2022-11-29T03:14:42.343Z,7.60
2022-11-29T03:19:42.993Z,8.40
2022-11-29T03:25:13.526Z,6.30
2022-11-29T03:30:13.959Z,6.83
2022-11-29T03:35:27.301Z,7.10
2022-11-29T03:40:33.135Z,8.43
2022-11-29T03:45:44.015Z,9.43
2022-11-29T03:50:47.771Z,6.50
2022-11-29T03:56:00.992Z,8.43
2022-11-29T04:01:28.923Z,5.53
2022-11-29T04:06:47.023Z,8.20
2022-11-29T04:12:04.416Z,8.43
2022-11-29T04:17:32.851Z,9.03
2022-11-29T04:22:58.441Z,4.87
2022-11-29T04:28:14.212Z,5.50
2022-11-29T04:33:27.580Z,5.87
2022-11-29T04:38:46.323Z,8.87
2022-11-29T04:44:01.640Z,6.20
2022-11-29T04:49:27.037Z,6.30
2022-11-29T04:54:51.471Z,4.47
2022-11-29T05:05:58.556Z,5.93
2022-11-29T05:27:59.793Z,5.83
2022-11-29T05:39:28.954Z,5.23
2022-11-29T05:50:35.585Z,7.83
2022-11-29T06:30:10.670Z,9.23
2022-11-29T06:35:07.903Z,7.27
2022-11-29T07:06:52.876Z,6.30
2022-11-29T08:16:27.603Z,6.77
2022-11-29T08:51:23.461Z,8.07
2022-11-29T11:01:20.758Z,8.20
2022-11-29T11:27:04.865Z,7.70
2022-11-29T11:58:47.177Z,9.93
2022-11-29T12:09:47.455Z,7.80
2022-11-29T12:14:55.546Z,3.83
2022-11-29T13:15:21.629Z,4.97
2022-11-29T13:52:52.509Z,5.53
2022-11-29T13:58:19.402Z,5.53
2022-11-29T14:03:30.656Z,3.60
2022-11-29T14:24:45.978Z,8.53
2022-11-29T15:12:06.072Z,5.67
2022-11-29T15:17:33.574Z,6.40
2022-11-29T15:23:13.064Z,3.43
2022-11-29T15:49:27.555Z,6.73
2022-11-29T15:54:38.598Z,5.50
2022-11-29T16:00:13.253Z,5.87
2022-11-29T16:05:23.819Z,6.87
2022-11-29T16:26:43.870Z,7.50
2022-11-29T16:47:39.936Z,9.13
2022-11-29T16:52:43.511Z,10.80
2022-11-29T17:07:51.994Z,7.37
2022-11-29T17:17:51.525Z,6.50
2022-11-29T17:22:44.072Z,11.07
2022-11-29T17:27:37.456Z,8.97
2022-11-29T17:32:29.866Z,10.10
2022-11-29T17:37:23.234Z,7.93
2022-11-29T17:47:23.860Z,8.67
2022-11-29T18:12:39.688Z,9.73
2022-11-29T18:17:40.865Z,12.97
2022-11-29T18:22:36.825Z,11.00
2022-11-29T18:32:38.411Z,14.93
2022-11-29T19:49:15.887Z,12.67
2022-11-29T20:19:42.679Z,10.20
2022-11-29T20:29:40.999Z,11.57
2022-11-29T20:40:06.525Z,11.57
2022-11-29T20:45:02.838Z,8.97
2022-11-29T20:49:59.684Z,10.33
2022-11-29T20:54:52.385Z,10.93
2022-11-29T20:59:45.745Z,9.30
2022-11-29T21:09:43.697Z,7.93
2022-11-29T21:19:42.746Z,10.83
2022-11-29T21:30:24.985Z,9.20
2022-11-29T21:35:26.101Z,10.77
2022-11-29T21:45:24.098Z,7.67
2022-11-29T21:50:17.167Z,7.33
2022-11-29T21:55:10.169Z,10.07
2022-11-29T22:00:03.413Z,7.17
2022-11-29T22:04:55.453Z,8.67
2022-11-29T22:09:47.977Z,7.50
2022-11-29T22:14:39.794Z,8.53
2022-11-29T22:19:40.094Z,8.77
2022-11-29T22:29:42.837Z,7.53
2022-11-29T22:34:35.107Z,6.50
2022-11-29T22:39:29.146Z,7.10
2022-11-29T22:44:20.928Z,6.93
2022-11-29T22:49:13.529Z,7.73
2022-11-29T22:54:09.298Z,7.07
2022-11-29T22:59:02.032Z,6.30
2022-11-29T23:04:01.387Z,8.70
2022-11-29T23:08:57.337Z,5.40
2022-11-29T23:13:50.361Z,5.20
2022-11-29T23:18:44.974Z,5.40
2022-11-29T23:23:37.727Z,5.70
2022-11-29T23:28:30.260Z,5.10
2022-11-29T23:33:23.517Z,6.27
2022-11-29T23:38:16.507Z,5.20
2022-11-29T23:43:08.307Z,6.83
2022-11-29T23:48:00.176Z,6.60
2022-11-29T23:52:55.126Z,6.27
2022-11-29T23:57:47.135Z,8.20
